sensor_id;sensor_type;location;lat;lon;timestamp;P1;durP1;ratioP1;P2;durP2;ratioP2
17361;SDS011;8798;51.938;4.348;2022-12-18T00:01:29;33.67;;;11.37;;
17361;SDS011;8798;51.938;4.348;2022-12-18T00:03:59;28.57;;;11.13;;
17361;SDS011;8798;51.938;4.348;2022-12-18T00:06:32;34.70;;;11.73;;
17361;SDS011;8798;51.938;4.348;2022-12-18T00:09:01;33.80;;;11.47;;
17361;SDS011;8798;51.938;4.348;2022-12-18T00:11:30;33.97;;;11.23;;
17361;SDS011;8798;51.938;4.348;2022-12-18T00:14:00;32.17;;;11.10;;
17361;SDS011;8798;51.938;4.348;2022-12-18T00:16:28;33.53;;;10.83;;
17361;SDS011;8798;51.938;4.348;2022-12-18T00:18:59;33.93;;;11.90;;
17361;SDS011;8798;51.938;4.348;2022-12-18T00:21:27;32.37;;;11.73;;
17361;SDS011;8798;51.938;4.348;2022-12-18T00:23:56;25.73;;;10.80;;
17361;SDS011;8798;51.938;4.348;2022-12-18T00:26:26;34.57;;;11.67;;
17361;SDS011;8798;51.938;4.348;2022-12-18T00:28:57;29.97;;;10.43;;
17361;SDS011;8798;51.938;4.348;2022-12-18T00:31:30;34.87;;;11.50;;
17361;SDS011;8798;51.938;4.348;2022-12-18T00:33:58;26.70;;;9.80;;
17361;SDS011;8798;51.938;4.348;2022-12-18T00:36:27;27.07;;;10.03;;
17361;SDS011;8798;51.938;4.348;2022-12-18T00:38:56;29.10;;;10.27;;
17361;SDS011;8798;51.938;4.348;2022-12-18T00:41:25;30.17;;;10.70;;
17361;SDS011;8798;51.938;4.348;2022-12-18T00:44:13;30.33;;;10.00;;
17361;SDS011;8798;51.938;4.348;2022-12-18T00:46:42;29.13;;;9.83;;
17361;SDS011;8798;51.938;4.348;2022-12-18T00:49:10;35.07;;;11.23;;
17361;SDS011;8798;51.938;4.348;2022-12-18T00:51:41;30.00;;;10.27;;
17361;SDS011;8798;51.938;4.348;2022-12-18T00:54:10;27.93;;;10.67;;
17361;SDS011;8798;51.938;4.348;2022-12-18T00:56:38;27.13;;;10.33;;
17361;SDS011;8798;51.938;4.348;2022-12-18T00:59:15;26.60;;;10.13;;
17361;SDS011;8798;51.938;4.348;2022-12-18T01:01:43;26.53;;;10.00;;
17361;SDS011;8798;51.938;4.348;2022-12-18T01:04:12;31.63;;;10.33;;
17361;SDS011;8798;51.938;4.348;2022-12-18T01:06:40;27.73;;;10.27;;
17361;SDS011;8798;51.938;4.348;2022-12-18T01:09:07;25.00;;;9.70;;
17361;SDS011;8798;51.938;4.348;2022-12-18T01:11:35;30.97;;;10.43;;
17361;SDS011;8798;51.938;4.348;2022-12-18T01:14:03;30.80;;;11.57;;
17361;SDS011;8798;51.938;4.348;2022-12-18T01:16:33;30.83;;;10.37;;
17361;SDS011;8798;51.938;4.348;2022-12-18T01:19:01;25.73;;;9.90;;
17361;SDS011;8798;51.938;4.348;2022-12-18T01:21:29;29.20;;;10.73;;
17361;SDS011;8798;51.938;4.348;2022-12-18T01:23:57;28.53;;;10.80;;
17361;SDS011;8798;51.938;4.348;2022-12-18T01:26:25;28.53;;;10.70;;
17361;SDS011;8798;51.938;4.348;2022-12-18T01:28:56;28.23;;;10.97;;
17361;SDS011;8798;51.938;4.348;2022-12-18T01:31:25;31.87;;;12.27;;
17361;SDS011;8798;51.938;4.348;2022-12-18T01:33:56;24.50;;;10.77;;
17361;SDS011;8798;51.938;4.348;2022-12-18T01:36:25;31.17;;;10.73;;
17361;SDS011;8798;51.938;4.348;2022-12-18T01:38:55;30.13;;;11.30;;
17361;SDS011;8798;51.938;4.348;2022-12-18T01:41:24;26.40;;;10.67;;
17361;SDS011;8798;51.938;4.348;2022-12-18T01:47:23;26.90;;;10.00;;
17361;SDS011;8798;51.938;4.348;2022-12-18T01:49:54;31.77;;;11.17;;
17361;SDS011;8798;51.938;4.348;2022-12-18T01:52:24;31.40;;;10.73;;
17361;SDS011;8798;51.938;4.348;2022-12-18T01:54:53;26.57;;;10.00;;
17361;SDS011;8798;51.938;4.348;2022-12-18T01:57:22;31.87;;;11.20;;
17361;SDS011;8798;51.938;4.348;2022-12-18T01:59:52;27.53;;;11.20;;
17361;SDS011;8798;51.938;4.348;2022-12-18T02:02:21;30.80;;;10.13;;
17361;SDS011;8798;51.938;4.348;2022-12-18T02:04:50;37.30;;;12.27;;
17361;SDS011;8798;51.938;4.348;2022-12-18T02:07:22;29.93;;;11.33;;
17361;SDS011;8798;51.938;4.348;2022-12-18T02:09:58;29.50;;;11.03;;
17361;SDS011;8798;51.938;4.348;2022-12-18T02:12:30;29.93;;;10.80;;
17361;SDS011;8798;51.938;4.348;2022-12-18T02:15:07;29.43;;;10.43;;
17361;SDS011;8798;51.938;4.348;2022-12-18T02:17:41;27.73;;;10.37;;
17361;SDS011;8798;51.938;4.348;2022-12-18T02:20:16;25.13;;;10.33;;
17361;SDS011;8798;51.938;4.348;2022-12-18T02:22:53;25.57;;;9.43;;
17361;SDS011;8798;51.938;4.348;2022-12-18T02:25:37;27.23;;;9.10;;
17361;SDS011;8798;51.938;4.348;2022-12-18T02:28:15;23.43;;;9.03;;
17361;SDS011;8798;51.938;4.348;2022-12-18T02:30:45;27.87;;;9.43;;
17361;SDS011;8798;51.938;4.348;2022-12-18T02:33:16;20.73;;;7.90;;
17361;SDS011;8798;51.938;4.348;2022-12-18T02:35:46;28.47;;;10.57;;
17361;SDS011;8798;51.938;4.348;2022-12-18T02:38:16;25.30;;;9.97;;
17361;SDS011;8798;51.938;4.348;2022-12-18T02:40:45;23.20;;;9.40;;
17361;SDS011;8798;51.938;4.348;2022-12-18T02:43:15;29.63;;;9.73;;
17361;SDS011;8798;51.938;4.348;2022-12-18T02:45:46;29.97;;;11.23;;
17361;SDS011;8798;51.938;4.348;2022-12-18T02:48:15;31.97;;;11.00;;
17361;SDS011;8798;51.938;4.348;2022-12-18T02:50:45;24.97;;;10.53;;
17361;SDS011;8798;51.938;4.348;2022-12-18T02:53:25;31.00;;;10.63;;
17361;SDS011;8798;51.938;4.348;2022-12-18T02:56:01;29.70;;;11.03;;
17361;SDS011;8798;51.938;4.348;2022-12-18T02:58:36;31.87;;;11.07;;
17361;SDS011;8798;51.938;4.348;2022-12-18T03:01:15;30.67;;;10.10;;
17361;SDS011;8798;51.938;4.348;2022-12-18T03:03:47;26.00;;;10.80;;
17361;SDS011;8798;51.938;4.348;2022-12-18T03:06:23;24.57;;;8.87;;
17361;SDS011;8798;51.938;4.348;2022-12-18T03:08:56;29.77;;;11.23;;
17361;SDS011;8798;51.938;4.348;2022-12-18T03:11:27;25.93;;;10.53;;
17361;SDS011;8798;51.938;4.348;2022-12-18T03:14:16;31.43;;;10.30;;
17361;SDS011;8798;51.938;4.348;2022-12-18T03:16:47;25.33;;;10.10;;
17361;SDS011;8798;51.938;4.348;2022-12-18T03:19:20;28.17;;;9.77;;
17361;SDS011;8798;51.938;4.348;2022-12-18T03:21:53;28.50;;;10.43;;
17361;SDS011;8798;51.938;4.348;2022-12-18T03:24:24;24.87;;;8.97;;
17361;SDS011;8798;51.938;4.348;2022-12-18T03:26:57;27.30;;;10.10;;
17361;SDS011;8798;51.938;4.348;2022-12-18T03:29:32;24.33;;;9.10;;
17361;SDS011;8798;51.938;4.348;2022-12-18T03:32:04;23.23;;;8.97;;
17361;SDS011;8798;51.938;4.348;2022-12-18T03:34:38;19.73;;;8.57;;
17361;SDS011;8798;51.938;4.348;2022-12-18T03:37:09;23.87;;;8.63;;
17361;SDS011;8798;51.938;4.348;2022-12-18T03:39:37;22.27;;;9.17;;
17361;SDS011;8798;51.938;4.348;2022-12-18T03:42:06;23.27;;;9.43;;
17361;SDS011;8798;51.938;4.348;2022-12-18T03:44:45;25.57;;;8.83;;
17361;SDS011;8798;51.938;4.348;2022-12-18T03:47:23;22.50;;;9.07;;
17361;SDS011;8798;51.938;4.348;2022-12-18T03:49:56;25.73;;;9.20;;
17361;SDS011;8798;51.938;4.348;2022-12-18T03:52:38;23.17;;;8.27;;
17361;SDS011;8798;51.938;4.348;2022-12-18T03:55:09;28.17;;;9.13;;
17361;SDS011;8798;51.938;4.348;2022-12-18T03:57:39;23.50;;;8.77;;
17361;SDS011;8798;51.938;4.348;2022-12-18T04:00:12;24.60;;;8.50;;
17361;SDS011;8798;51.938;4.348;2022-12-18T04:02:43;25.23;;;8.47;;
17361;SDS011;8798;51.938;4.348;2022-12-18T04:05:15;21.60;;;8.33;;
17361;SDS011;8798;51.938;4.348;2022-12-18T04:07:45;24.10;;;8.90;;
17361;SDS011;8798;51.938;4.348;2022-12-18T04:10:17;26.37;;;8.73;;
17361;SDS011;8798;51.938;4.348;2022-12-18T04:12:45;22.50;;;8.80;;
17361;SDS011;8798;51.938;4.348;2022-12-18T04:15:15;23.23;;;9.57;;
17361;SDS011;8798;51.938;4.348;2022-12-18T04:17:46;26.40;;;9.63;;
17361;SDS011;8798;51.938;4.348;2022-12-18T04:20:16;22.30;;;8.57;;
17361;SDS011;8798;51.938;4.348;2022-12-18T04:22:44;22.53;;;9.03;;
17361;SDS011;8798;51.938;4.348;2022-12-18T04:25:12;22.10;;;8.27;;
17361;SDS011;8798;51.938;4.348;2022-12-18T04:27:40;18.93;;;7.77;;
17361;SDS011;8798;51.938;4.348;2022-12-18T04:30:08;21.97;;;8.60;;
17361;SDS011;8798;51.938;4.348;2022-12-18T04:32:38;22.00;;;7.87;;
17361;SDS011;8798;51.938;4.348;2022-12-18T04:35:06;19.30;;;8.53;;
17361;SDS011;8798;51.938;4.348;2022-12-18T04:37:36;19.07;;;7.33;;
17361;SDS011;8798;51.938;4.348;2022-12-18T04:40:05;22.30;;;9.23;;
17361;SDS011;8798;51.938;4.348;2022-12-18T04:42:33;22.57;;;8.13;;
17361;SDS011;8798;51.938;4.348;2022-12-18T04:45:01;20.43;;;8.07;;
17361;SDS011;8798;51.938;4.348;2022-12-18T04:47:29;20.97;;;8.60;;
17361;SDS011;8798;51.938;4.348;2022-12-18T04:49:59;22.27;;;8.43;;
17361;SDS011;8798;51.938;4.348;2022-12-18T04:52:27;20.63;;;8.20;;
17361;SDS011;8798;51.938;4.348;2022-12-18T04:54:57;22.17;;;8.90;;
17361;SDS011;8798;51.938;4.348;2022-12-18T04:57:24;20.00;;;8.27;;
17361;SDS011;8798;51.938;4.348;2022-12-18T04:59:52;25.23;;;7.73;;
17361;SDS011;8798;51.938;4.348;2022-12-18T05:02:20;16.93;;;7.40;;
17361;SDS011;8798;51.938;4.348;2022-12-18T05:04:48;20.47;;;7.97;;
17361;SDS011;8798;51.938;4.348;2022-12-18T05:07:17;18.60;;;6.67;;
17361;SDS011;8798;51.938;4.348;2022-12-18T05:09:45;22.30;;;8.00;;
17361;SDS011;8798;51.938;4.348;2022-12-18T05:12:13;19.83;;;7.53;;
17361;SDS011;8798;51.938;4.348;2022-12-18T05:14:41;16.80;;;7.70;;
17361;SDS011;8798;51.938;4.348;2022-12-18T05:17:08;16.90;;;6.90;;
17361;SDS011;8798;51.938;4.348;2022-12-18T05:19:36;18.00;;;7.17;;
17361;SDS011;8798;51.938;4.348;2022-12-18T05:22:07;20.50;;;7.53;;
17361;SDS011;8798;51.938;4.348;2022-12-18T05:24:37;17.07;;;7.33;;
17361;SDS011;8798;51.938;4.348;2022-12-18T05:27:05;19.83;;;7.60;;
17361;SDS011;8798;51.938;4.348;2022-12-18T05:29:33;17.70;;;7.70;;
17361;SDS011;8798;51.938;4.348;2022-12-18T05:32:01;15.90;;;6.67;;
17361;SDS011;8798;51.938;4.348;2022-12-18T05:34:28;18.07;;;8.10;;
17361;SDS011;8798;51.938;4.348;2022-12-18T05:36:56;22.10;;;8.30;;
17361;SDS011;8798;51.938;4.348;2022-12-18T05:39:24;18.97;;;7.77;;
17361;SDS011;8798;51.938;4.348;2022-12-18T05:41:53;20.37;;;7.60;;
17361;SDS011;8798;51.938;4.348;2022-12-18T05:44:21;15.03;;;6.50;;
17361;SDS011;8798;51.938;4.348;2022-12-18T05:46:49;22.07;;;7.80;;
17361;SDS011;8798;51.938;4.348;2022-12-18T05:49:17;19.27;;;7.13;;
17361;SDS011;8798;51.938;4.348;2022-12-18T05:51:45;18.63;;;7.13;;
17361;SDS011;8798;51.938;4.348;2022-12-18T05:54:12;20.33;;;8.23;;
17361;SDS011;8798;51.938;4.348;2022-12-18T05:56:40;16.77;;;7.27;;
17361;SDS011;8798;51.938;4.348;2022-12-18T05:59:15;16.63;;;6.70;;
17361;SDS011;8798;51.938;4.348;2022-12-18T06:01:43;21.53;;;7.03;;
17361;SDS011;8798;51.938;4.348;2022-12-18T06:04:11;20.03;;;7.93;;
17361;SDS011;8798;51.938;4.348;2022-12-18T06:06:39;16.70;;;6.60;;
17361;SDS011;8798;51.938;4.348;2022-12-18T06:09:07;20.57;;;7.40;;
17361;SDS011;8798;51.938;4.348;2022-12-18T06:11:36;18.37;;;7.47;;
17361;SDS011;8798;51.938;4.348;2022-12-18T06:14:04;18.37;;;6.97;;
17361;SDS011;8798;51.938;4.348;2022-12-18T06:16:34;17.00;;;7.53;;
17361;SDS011;8798;51.938;4.348;2022-12-18T06:19:03;19.57;;;6.90;;
17361;SDS011;8798;51.938;4.348;2022-12-18T06:21:32;15.67;;;7.03;;
17361;SDS011;8798;51.938;4.348;2022-12-18T06:24:01;25.10;;;8.50;;
17361;SDS011;8798;51.938;4.348;2022-12-18T06:26:29;23.90;;;8.27;;
17361;SDS011;8798;51.938;4.348;2022-12-18T06:28:58;20.57;;;7.57;;
17361;SDS011;8798;51.938;4.348;2022-12-18T06:31:26;18.53;;;7.33;;
17361;SDS011;8798;51.938;4.348;2022-12-18T06:33:55;15.33;;;6.57;;
17361;SDS011;8798;51.938;4.348;2022-12-18T06:36:23;23.17;;;8.10;;
17361;SDS011;8798;51.938;4.348;2022-12-18T06:38:51;21.97;;;7.97;;
17361;SDS011;8798;51.938;4.348;2022-12-18T06:41:20;16.10;;;7.27;;
17361;SDS011;8798;51.938;4.348;2022-12-18T06:43:48;16.73;;;6.40;;
17361;SDS011;8798;51.938;4.348;2022-12-18T06:46:20;17.10;;;6.47;;
17361;SDS011;8798;51.938;4.348;2022-12-18T06:48:48;14.90;;;5.97;;
17361;SDS011;8798;51.938;4.348;2022-12-18T06:53:49;18.87;;;7.30;;
17361;SDS011;8798;51.938;4.348;2022-12-18T06:56:17;12.67;;;6.17;;
17361;SDS011;8798;51.938;4.348;2022-12-18T06:58:45;17.60;;;7.20;;
17361;SDS011;8798;51.938;4.348;2022-12-18T07:01:13;12.77;;;6.07;;
17361;SDS011;8798;51.938;4.348;2022-12-18T07:03:41;14.93;;;6.53;;
17361;SDS011;8798;51.938;4.348;2022-12-18T07:06:14;9.60;;;5.20;;
17361;SDS011;8798;51.938;4.348;2022-12-18T07:08:45;12.20;;;5.87;;
17361;SDS011;8798;51.938;4.348;2022-12-18T07:11:13;11.77;;;5.50;;
17361;SDS011;8798;51.938;4.348;2022-12-18T07:13:41;12.10;;;5.27;;
17361;SDS011;8798;51.938;4.348;2022-12-18T07:16:10;15.07;;;5.60;;
17361;SDS011;8798;51.938;4.348;2022-12-18T07:18:47;11.00;;;4.87;;
17361;SDS011;8798;51.938;4.348;2022-12-18T07:21:16;15.73;;;5.63;;
17361;SDS011;8798;51.938;4.348;2022-12-18T07:23:47;12.37;;;5.70;;
17361;SDS011;8798;51.938;4.348;2022-12-18T07:26:16;12.33;;;5.27;;
17361;SDS011;8798;51.938;4.348;2022-12-18T07:28:45;14.30;;;5.70;;
17361;SDS011;8798;51.938;4.348;2022-12-18T07:31:14;13.07;;;5.20;;
17361;SDS011;8798;51.938;4.348;2022-12-18T07:33:44;11.90;;;5.57;;
17361;SDS011;8798;51.938;4.348;2022-12-18T07:36:13;12.73;;;6.30;;
17361;SDS011;8798;51.938;4.348;2022-12-18T07:38:41;12.37;;;5.43;;
17361;SDS011;8798;51.938;4.348;2022-12-18T07:41:11;13.57;;;5.83;;
17361;SDS011;8798;51.938;4.348;2022-12-18T07:43:40;12.57;;;5.07;;
17361;SDS011;8798;51.938;4.348;2022-12-18T07:46:10;15.63;;;5.60;;
17361;SDS011;8798;51.938;4.348;2022-12-18T07:48:40;10.97;;;5.60;;
17361;SDS011;8798;51.938;4.348;2022-12-18T07:51:09;10.30;;;5.03;;
17361;SDS011;8798;51.938;4.348;2022-12-18T07:53:40;10.77;;;4.77;;
17361;SDS011;8798;51.938;4.348;2022-12-18T07:56:11;18.30;;;6.10;;
17361;SDS011;8798;51.938;4.348;2022-12-18T07:58:56;11.90;;;5.10;;
17361;SDS011;8798;51.938;4.348;2022-12-18T08:01:24;11.07;;;5.57;;
17361;SDS011;8798;51.938;4.348;2022-12-18T08:03:52;12.80;;;5.63;;
17361;SDS011;8798;51.938;4.348;2022-12-18T08:06:20;11.27;;;5.40;;
17361;SDS011;8798;51.938;4.348;2022-12-18T08:08:50;12.43;;;5.60;;
17361;SDS011;8798;51.938;4.348;2022-12-18T08:11:20;12.43;;;5.40;;
17361;SDS011;8798;51.938;4.348;2022-12-18T08:13:48;11.23;;;5.43;;
17361;SDS011;8798;51.938;4.348;2022-12-18T08:16:17;12.23;;;5.57;;
17361;SDS011;8798;51.938;4.348;2022-12-18T08:18:46;12.20;;;5.90;;
17361;SDS011;8798;51.938;4.348;2022-12-18T08:21:15;12.13;;;5.63;;
17361;SDS011;8798;51.938;4.348;2022-12-18T08:23:46;10.43;;;5.43;;
17361;SDS011;8798;51.938;4.348;2022-12-18T08:26:16;14.80;;;5.47;;
17361;SDS011;8798;51.938;4.348;2022-12-18T08:28:47;12.47;;;5.70;;
17361;SDS011;8798;51.938;4.348;2022-12-18T08:31:16;10.57;;;4.97;;
17361;SDS011;8798;51.938;4.348;2022-12-18T08:33:44;11.97;;;5.80;;
17361;SDS011;8798;51.938;4.348;2022-12-18T08:36:12;12.13;;;5.43;;
17361;SDS011;8798;51.938;4.348;2022-12-18T08:38:40;15.03;;;5.77;;
17361;SDS011;8798;51.938;4.348;2022-12-18T08:41:08;9.57;;;5.63;;
17361;SDS011;8798;51.938;4.348;2022-12-18T08:43:38;10.57;;;5.50;;
17361;SDS011;8798;51.938;4.348;2022-12-18T08:46:26;10.87;;;5.23;;
17361;SDS011;8798;51.938;4.348;2022-12-18T08:48:55;12.77;;;4.93;;
17361;SDS011;8798;51.938;4.348;2022-12-18T08:51:23;10.63;;;5.17;;
17361;SDS011;8798;51.938;4.348;2022-12-18T08:53:51;10.70;;;5.20;;
17361;SDS011;8798;51.938;4.348;2022-12-18T08:56:19;8.10;;;4.37;;
17361;SDS011;8798;51.938;4.348;2022-12-18T08:58:46;10.73;;;5.67;;
17361;SDS011;8798;51.938;4.348;2022-12-18T09:01:14;12.30;;;4.93;;
17361;SDS011;8798;51.938;4.348;2022-12-18T09:03:44;11.10;;;4.80;;
17361;SDS011;8798;51.938;4.348;2022-12-18T09:06:14;9.07;;;5.00;;
17361;SDS011;8798;51.938;4.348;2022-12-18T09:08:44;8.77;;;5.10;;
17361;SDS011;8798;51.938;4.348;2022-12-18T09:11:13;10.63;;;5.37;;
17361;SDS011;8798;51.938;4.348;2022-12-18T09:13:42;12.53;;;5.40;;
17361;SDS011;8798;51.938;4.348;2022-12-18T09:16:10;11.00;;;5.40;;
17361;SDS011;8798;51.938;4.348;2022-12-18T09:18:37;10.50;;;4.83;;
17361;SDS011;8798;51.938;4.348;2022-12-18T09:21:11;9.63;;;4.63;;
17361;SDS011;8798;51.938;4.348;2022-12-18T09:23:40;12.00;;;5.30;;
17361;SDS011;8798;51.938;4.348;2022-12-18T09:26:09;11.07;;;5.00;;
17361;SDS011;8798;51.938;4.348;2022-12-18T09:28:37;10.23;;;5.37;;
17361;SDS011;8798;51.938;4.348;2022-12-18T09:31:06;11.03;;;5.33;;
17361;SDS011;8798;51.938;4.348;2022-12-18T09:33:35;11.40;;;5.10;;
17361;SDS011;8798;51.938;4.348;2022-12-18T09:36:04;10.43;;;5.23;;
17361;SDS011;8798;51.938;4.348;2022-12-18T09:38:35;14.77;;;5.40;;
17361;SDS011;8798;51.938;4.348;2022-12-18T09:41:04;9.93;;;5.47;;
17361;SDS011;8798;51.938;4.348;2022-12-18T09:43:44;11.00;;;4.70;;
17361;SDS011;8798;51.938;4.348;2022-12-18T09:46:15;12.17;;;5.70;;
17361;SDS011;8798;51.938;4.348;2022-12-18T09:48:47;10.77;;;5.27;;
17361;SDS011;8798;51.938;4.348;2022-12-18T09:51:19;9.63;;;5.00;;
17361;SDS011;8798;51.938;4.348;2022-12-18T09:53:53;11.17;;;5.13;;
17361;SDS011;8798;51.938;4.348;2022-12-18T09:56:24;9.67;;;4.80;;
17361;SDS011;8798;51.938;4.348;2022-12-18T09:58:57;11.73;;;5.10;;
17361;SDS011;8798;51.938;4.348;2022-12-18T10:01:26;13.10;;;5.10;;
17361;SDS011;8798;51.938;4.348;2022-12-18T10:04:09;10.23;;;4.67;;
17361;SDS011;8798;51.938;4.348;2022-12-18T10:06:38;10.97;;;4.87;;
17361;SDS011;8798;51.938;4.348;2022-12-18T10:09:14;9.20;;;4.73;;
17361;SDS011;8798;51.938;4.348;2022-12-18T10:11:53;8.87;;;4.63;;
17361;SDS011;8798;51.938;4.348;2022-12-18T10:14:34;11.70;;;5.27;;
17361;SDS011;8798;51.938;4.348;2022-12-18T10:17:12;9.23;;;5.13;;
17361;SDS011;8798;51.938;4.348;2022-12-18T10:19:47;7.97;;;4.27;;
17361;SDS011;8798;51.938;4.348;2022-12-18T10:22:36;8.83;;;4.83;;
17361;SDS011;8798;51.938;4.348;2022-12-18T10:25:17;8.90;;;4.47;;
17361;SDS011;8798;51.938;4.348;2022-12-18T10:27:51;10.33;;;5.17;;
17361;SDS011;8798;51.938;4.348;2022-12-18T10:30:21;9.63;;;4.93;;
17361;SDS011;8798;51.938;4.348;2022-12-18T10:32:51;9.83;;;4.40;;
17361;SDS011;8798;51.938;4.348;2022-12-18T10:35:20;8.20;;;4.60;;
17361;SDS011;8798;51.938;4.348;2022-12-18T10:38:00;9.03;;;4.80;;
17361;SDS011;8798;51.938;4.348;2022-12-18T10:40:31;9.07;;;4.63;;
17361;SDS011;8798;51.938;4.348;2022-12-18T10:43:05;9.40;;;4.90;;
17361;SDS011;8798;51.938;4.348;2022-12-18T10:45:39;8.93;;;4.63;;
17361;SDS011;8798;51.938;4.348;2022-12-18T10:48:17;8.33;;;4.53;;
17361;SDS011;8798;51.938;4.348;2022-12-18T10:50:47;11.80;;;5.30;;
17361;SDS011;8798;51.938;4.348;2022-12-18T10:53:38;9.13;;;4.53;;
17361;SDS011;8798;51.938;4.348;2022-12-18T10:56:11;10.87;;;4.70;;
17361;SDS011;8798;51.938;4.348;2022-12-18T10:58:39;9.77;;;5.03;;
17361;SDS011;8798;51.938;4.348;2022-12-18T11:01:09;8.40;;;4.50;;
17361;SDS011;8798;51.938;4.348;2022-12-18T11:03:39;10.17;;;5.33;;
17361;SDS011;8798;51.938;4.348;2022-12-18T11:06:10;10.50;;;5.10;;
17361;SDS011;8798;51.938;4.348;2022-12-18T11:08:39;8.50;;;4.53;;
17361;SDS011;8798;51.938;4.348;2022-12-18T11:11:17;8.33;;;4.67;;
17361;SDS011;8798;51.938;4.348;2022-12-18T11:13:51;10.23;;;5.07;;
17361;SDS011;8798;51.938;4.348;2022-12-18T11:16:25;9.53;;;4.57;;
17361;SDS011;8798;51.938;4.348;2022-12-18T11:18:55;15.40;;;6.27;;
17361;SDS011;8798;51.938;4.348;2022-12-18T11:21:39;8.60;;;4.40;;
17361;SDS011;8798;51.938;4.348;2022-12-18T11:24:14;8.97;;;5.23;;
17361;SDS011;8798;51.938;4.348;2022-12-18T11:26:48;7.20;;;3.90;;
17361;SDS011;8798;51.938;4.348;2022-12-18T11:29:27;8.17;;;4.90;;
17361;SDS011;8798;51.938;4.348;2022-12-18T11:35:11;12.87;;;5.23;;
17361;SDS011;8798;51.938;4.348;2022-12-18T11:37:46;11.80;;;6.17;;
17361;SDS011;8798;51.938;4.348;2022-12-18T11:40:17;13.00;;;6.27;;
17361;SDS011;8798;51.938;4.348;2022-12-18T11:42:51;11.17;;;5.37;;
17361;SDS011;8798;51.938;4.348;2022-12-18T11:45:27;11.43;;;5.77;;
17361;SDS011;8798;51.938;4.348;2022-12-18T11:47:58;12.43;;;6.03;;
17361;SDS011;8798;51.938;4.348;2022-12-18T11:50:31;11.30;;;4.97;;
17361;SDS011;8798;51.938;4.348;2022-12-18T11:53:09;12.43;;;5.53;;
17361;SDS011;8798;51.938;4.348;2022-12-18T11:55:39;13.00;;;5.70;;
17361;SDS011;8798;51.938;4.348;2022-12-18T11:58:15;13.53;;;5.10;;
17361;SDS011;8798;51.938;4.348;2022-12-18T12:00:59;7.73;;;4.43;;
17361;SDS011;8798;51.938;4.348;2022-12-18T12:03:53;9.07;;;4.67;;
17361;SDS011;8798;51.938;4.348;2022-12-18T12:06:38;9.33;;;5.07;;
17361;SDS011;8798;51.938;4.348;2022-12-18T12:09:13;9.60;;;5.00;;
17361;SDS011;8798;51.938;4.348;2022-12-18T12:11:51;11.30;;;5.53;;
17361;SDS011;8798;51.938;4.348;2022-12-18T12:14:30;11.87;;;5.00;;
17361;SDS011;8798;51.938;4.348;2022-12-18T12:17:11;9.10;;;4.93;;
17361;SDS011;8798;51.938;4.348;2022-12-18T12:19:46;9.00;;;4.70;;
17361;SDS011;8798;51.938;4.348;2022-12-18T12:22:22;10.40;;;5.53;;
17361;SDS011;8798;51.938;4.348;2022-12-18T12:24:59;10.63;;;4.97;;
17361;SDS011;8798;51.938;4.348;2022-12-18T12:27:37;9.10;;;4.57;;
17361;SDS011;8798;51.938;4.348;2022-12-18T12:30:16;12.00;;;5.43;;
17361;SDS011;8798;51.938;4.348;2022-12-18T12:32:53;9.00;;;5.07;;
17361;SDS011;8798;51.938;4.348;2022-12-18T12:35:36;11.63;;;5.37;;
17361;SDS011;8798;51.938;4.348;2022-12-18T12:38:12;10.77;;;5.43;;
17361;SDS011;8798;51.938;4.348;2022-12-18T12:40:44;10.10;;;4.93;;
17361;SDS011;8798;51.938;4.348;2022-12-18T12:43:28;11.03;;;5.17;;
17361;SDS011;8798;51.938;4.348;2022-12-18T12:46:04;10.23;;;4.77;;
17361;SDS011;8798;51.938;4.348;2022-12-18T12:48:35;9.97;;;5.13;;
17361;SDS011;8798;51.938;4.348;2022-12-18T12:51:11;9.03;;;4.53;;
17361;SDS011;8798;51.938;4.348;2022-12-18T12:53:43;11.97;;;4.60;;
17361;SDS011;8798;51.938;4.348;2022-12-18T12:56:13;9.80;;;4.77;;
17361;SDS011;8798;51.938;4.348;2022-12-18T12:58:51;9.87;;;5.00;;
17361;SDS011;8798;51.938;4.348;2022-12-18T13:01:32;9.73;;;5.13;;
17361;SDS011;8798;51.938;4.348;2022-12-18T13:04:11;10.07;;;5.17;;
17361;SDS011;8798;51.938;4.348;2022-12-18T13:06:47;8.83;;;5.30;;
17361;SDS011;8798;51.938;4.348;2022-12-18T13:09:22;9.87;;;4.33;;
17361;SDS011;8798;51.938;4.348;2022-12-18T13:11:50;10.00;;;4.33;;
17361;SDS011;8798;51.938;4.348;2022-12-18T13:14:35;8.57;;;4.83;;
17361;SDS011;8798;51.938;4.348;2022-12-18T13:17:21;13.23;;;5.90;;
17361;SDS011;8798;51.938;4.348;2022-12-18T13:20:04;11.87;;;5.80;;
17361;SDS011;8798;51.938;4.348;2022-12-18T13:22:35;10.10;;;5.70;;
17361;SDS011;8798;51.938;4.348;2022-12-18T13:27:59;10.93;;;5.23;;
17361;SDS011;8798;51.938;4.348;2022-12-18T13:33:39;11.07;;;5.43;;
17361;SDS011;8798;51.938;4.348;2022-12-18T13:36:31;11.00;;;5.77;;
17361;SDS011;8798;51.938;4.348;2022-12-18T13:39:10;9.53;;;5.03;;
17361;SDS011;8798;51.938;4.348;2022-12-18T13:45:34;8.83;;;4.67;;
17361;SDS011;8798;51.938;4.348;2022-12-18T13:48:14;11.50;;;4.97;;
17361;SDS011;8798;51.938;4.348;2022-12-18T13:50:58;9.90;;;4.57;;
17361;SDS011;8798;51.938;4.348;2022-12-18T13:53:30;12.63;;;5.53;;
17361;SDS011;8798;51.938;4.348;2022-12-18T13:56:02;10.70;;;4.83;;
17361;SDS011;8798;51.938;4.348;2022-12-18T13:58:31;10.03;;;5.07;;
17361;SDS011;8798;51.938;4.348;2022-12-18T14:00:59;9.73;;;5.23;;
17361;SDS011;8798;51.938;4.348;2022-12-18T14:03:29;11.20;;;5.10;;
17361;SDS011;8798;51.938;4.348;2022-12-18T14:06:00;12.30;;;5.37;;
17361;SDS011;8798;51.938;4.348;2022-12-18T14:08:36;12.20;;;6.03;;
17361;SDS011;8798;51.938;4.348;2022-12-18T14:11:07;8.43;;;4.67;;
17361;SDS011;8798;51.938;4.348;2022-12-18T14:13:47;12.13;;;5.13;;
17361;SDS011;8798;51.938;4.348;2022-12-18T14:16:16;11.57;;;5.30;;
17361;SDS011;8798;51.938;4.348;2022-12-18T14:18:45;10.73;;;5.33;;
17361;SDS011;8798;51.938;4.348;2022-12-18T14:21:21;10.83;;;4.90;;
17361;SDS011;8798;51.938;4.348;2022-12-18T14:24:03;15.57;;;5.80;;
17361;SDS011;8798;51.938;4.348;2022-12-18T14:26:42;11.20;;;5.70;;
17361;SDS011;8798;51.938;4.348;2022-12-18T14:29:23;13.77;;;5.40;;
17361;SDS011;8798;51.938;4.348;2022-12-18T14:34:43;11.33;;;5.43;;
17361;SDS011;8798;51.938;4.348;2022-12-18T14:37:14;11.73;;;6.07;;
17361;SDS011;8798;51.938;4.348;2022-12-18T14:39:56;11.37;;;5.13;;
17361;SDS011;8798;51.938;4.348;2022-12-18T14:42:29;8.93;;;5.00;;
17361;SDS011;8798;51.938;4.348;2022-12-18T14:48:08;13.80;;;5.60;;
17361;SDS011;8798;51.938;4.348;2022-12-18T14:50:43;10.17;;;5.47;;
17361;SDS011;8798;51.938;4.348;2022-12-18T14:53:21;12.27;;;5.50;;
17361;SDS011;8798;51.938;4.348;2022-12-18T14:55:54;11.53;;;5.57;;
17361;SDS011;8798;51.938;4.348;2022-12-18T14:58:23;13.07;;;5.87;;
17361;SDS011;8798;51.938;4.348;2022-12-18T15:00:54;9.77;;;5.97;;
17361;SDS011;8798;51.938;4.348;2022-12-18T15:03:22;11.50;;;5.73;;
17361;SDS011;8798;51.938;4.348;2022-12-18T15:05:51;10.43;;;5.43;;
17361;SDS011;8798;51.938;4.348;2022-12-18T15:08:30;11.63;;;6.13;;
17361;SDS011;8798;51.938;4.348;2022-12-18T15:11:02;18.07;;;6.30;;
17361;SDS011;8798;51.938;4.348;2022-12-18T15:13:38;11.70;;;5.83;;
17361;SDS011;8798;51.938;4.348;2022-12-18T15:16:06;11.03;;;5.23;;
17361;SDS011;8798;51.938;4.348;2022-12-18T15:18:41;12.33;;;6.57;;
17361;SDS011;8798;51.938;4.348;2022-12-18T15:21:11;13.00;;;5.87;;
17361;SDS011;8798;51.938;4.348;2022-12-18T15:23:46;13.90;;;5.57;;
17361;SDS011;8798;51.938;4.348;2022-12-18T15:26:16;15.13;;;6.57;;
17361;SDS011;8798;51.938;4.348;2022-12-18T15:28:47;14.70;;;6.27;;
17361;SDS011;8798;51.938;4.348;2022-12-18T15:31:21;12.37;;;6.20;;
17361;SDS011;8798;51.938;4.348;2022-12-18T15:34:00;12.67;;;6.33;;
17361;SDS011;8798;51.938;4.348;2022-12-18T15:36:46;14.13;;;6.20;;
17361;SDS011;8798;51.938;4.348;2022-12-18T15:39:16;9.73;;;5.13;;
17361;SDS011;8798;51.938;4.348;2022-12-18T15:41:43;14.77;;;6.50;;